createdAt,value
2022-12-23T00:04:28.645Z,8
2022-12-23T00:09:28.653Z,8
2022-12-23T00:14:28.694Z,8
2022-12-23T00:19:28.730Z,8
2022-12-23T00:24:28.662Z,8
2022-12-23T00:29:28.676Z,8
2022-12-23T00:34:28.734Z,8
2022-12-23T00:39:28.666Z,8
2022-12-23T00:44:28.648Z,8
2022-12-23T00:49:28.686Z,8
2022-12-23T00:54:28.705Z,8
2022-12-23T00:59:28.673Z,8.1
2022-12-23T01:04:28.639Z,8.1
2022-12-23T01:09:28.689Z,8.1
2022-12-23T01:14:28.728Z,8.1
2022-12-23T01:19:28.740Z,8.1
2022-12-23T01:24:28.714Z,8.1
2022-12-23T01:29:28.759Z,8.1
2022-12-23T01:34:34.463Z,8.1
2022-12-23T01:39:28.781Z,8.1
2022-12-23T01:44:28.757Z,8.1
2022-12-23T01:49:28.750Z,8.1
2022-12-23T01:54:28.747Z,8.1
2022-12-23T01:59:28.742Z,8.2
2022-12-23T02:04:28.737Z,8.2
2022-12-23T02:09:28.756Z,8.2
2022-12-23T02:14:28.761Z,8.2
2022-12-23T02:19:28.750Z,8.2
2022-12-23T02:24:28.744Z,8.2
2022-12-23T02:29:28.763Z,8.2
2022-12-23T02:34:28.822Z,8.2
2022-12-23T02:39:28.983Z,8.3
2022-12-23T02:44:28.738Z,8.3
2022-12-23T02:49:28.744Z,8.2
2022-12-23T02:54:28.778Z,8.3
2022-12-23T02:59:28.751Z,8.3
2022-12-23T03:04:28.728Z,8.3
2022-12-23T03:09:28.757Z,8.3
2022-12-23T03:14:28.785Z,8.3
2022-12-23T03:19:28.729Z,8.3
2022-12-23T03:24:28.751Z,8.3
2022-12-23T03:29:28.781Z,8.3
2022-12-23T03:51:03.766Z,8.3
2022-12-23T03:56:03.730Z,8.3
2022-12-23T04:01:03.749Z,8.3
2022-12-23T04:06:03.749Z,8.3
2022-12-23T04:11:03.760Z,8.3
2022-12-23T04:16:03.711Z,8.3
2022-12-23T04:21:03.693Z,8.3
2022-12-23T04:26:03.701Z,8.3
2022-12-23T04:31:03.847Z,8.3
2022-12-23T04:36:03.877Z,8.3
2022-12-23T04:41:03.765Z,8.3
2022-12-23T04:46:03.749Z,8.3
2022-12-23T04:51:03.755Z,8.3
2022-12-23T04:56:03.718Z,8.3
2022-12-23T05:01:03.760Z,8.3
2022-12-23T05:06:03.704Z,8.3
2022-12-23T05:11:03.745Z,8.3
2022-12-23T05:16:03.737Z,8.3
2022-12-23T05:21:03.703Z,8.3
2022-12-23T05:26:03.733Z,8.3
2022-12-23T05:31:03.812Z,8.3
2022-12-23T05:36:03.735Z,8.4
2022-12-23T05:41:03.769Z,8.4
2022-12-23T05:46:03.833Z,8.4
2022-12-23T05:51:03.790Z,8.4
2022-12-23T05:56:03.708Z,8.4
2022-12-23T06:01:03.718Z,8.4
2022-12-23T06:06:03.713Z,8.4
2022-12-23T06:11:03.754Z,8.4
2022-12-23T06:16:03.746Z,8.4
2022-12-23T06:21:03.722Z,8.4
2022-12-23T06:26:03.779Z,8.4
2022-12-23T06:31:03.774Z,8.4
2022-12-23T06:36:03.766Z,8.4
2022-12-23T06:41:03.943Z,8.4
2022-12-23T06:46:03.830Z,8.4
2022-12-23T06:51:03.852Z,8.4
2022-12-23T06:56:03.765Z,8.4
2022-12-23T07:01:03.823Z,8.4
2022-12-23T07:06:03.779Z,8.4
2022-12-23T07:11:03.797Z,8.4
2022-12-23T07:16:03.988Z,8.4
2022-12-23T07:21:03.796Z,8.4
2022-12-23T07:26:03.817Z,8.4
2022-12-23T07:31:03.825Z,8.4
2022-12-23T07:36:03.792Z,8.4
2022-12-23T07:41:03.817Z,8.4
2022-12-23T07:46:03.834Z,8.4
2022-12-23T07:51:03.856Z,8.4
2022-12-23T07:56:03.803Z,8.4
2022-12-23T08:01:03.846Z,8.4
2022-12-23T08:06:03.817Z,8.4
2022-12-23T08:11:03.798Z,8.4
2022-12-23T08:16:03.849Z,8.4
2022-12-23T08:21:03.788Z,8.4
2022-12-23T08:26:03.796Z,8.4
2022-12-23T08:31:03.909Z,8.3
2022-12-23T08:36:03.778Z,8.4
2022-12-23T08:41:03.797Z,8.3
2022-12-23T08:46:03.899Z,8.3
2022-12-23T08:51:03.815Z,8.3
2022-12-23T08:56:03.794Z,8.3
2022-12-23T09:01:03.867Z,8.3
2022-12-23T09:06:03.807Z,8.3
2022-12-23T09:11:03.829Z,8.3
2022-12-23T09:16:03.856Z,8.3
2022-12-23T09:21:03.785Z,8.3
2022-12-23T09:26:03.947Z,8.3
2022-12-23T09:31:03.842Z,8.3
2022-12-23T09:36:03.795Z,8.3
2022-12-23T09:41:03.795Z,8.3
2022-12-23T09:46:03.942Z,8.3
2022-12-23T09:51:03.840Z,8.3
2022-12-23T09:56:03.823Z,8.3
2022-12-23T10:01:03.832Z,8.3
2022-12-23T10:06:03.812Z,8.3
2022-12-23T10:11:03.833Z,8.3
2022-12-23T10:16:03.874Z,8.3
2022-12-23T10:21:03.801Z,8.3
2022-12-23T10:26:03.820Z,8.3
2022-12-23T10:31:38.339Z,8.3
2022-12-23T10:36:03.854Z,8.3
2022-12-23T10:41:07.012Z,8.3
2022-12-23T10:46:03.952Z,8.3
2022-12-23T10:51:03.820Z,8.4
2022-12-23T10:56:03.804Z,8.4
2022-12-23T11:01:08.369Z,8.4
2022-12-23T11:06:03.823Z,8.4
2022-12-23T11:11:03.906Z,8.4
2022-12-23T11:16:03.865Z,8.4
2022-12-23T11:21:03.806Z,8.4
2022-12-23T11:26:03.827Z,8.5
2022-12-23T11:31:03.844Z,8.5
2022-12-23T11:36:03.836Z,8.5
2022-12-23T11:41:03.809Z,8.5
2022-12-23T11:46:03.854Z,8.6
2022-12-23T11:51:03.854Z,8.6
2022-12-23T11:56:03.815Z,8.6
2022-12-23T12:01:03.838Z,8.6
2022-12-23T12:06:03.846Z,8.6
2022-12-23T12:11:03.851Z,8.6
2022-12-23T12:16:03.815Z,8.6
2022-12-23T12:21:03.824Z,8.6
2022-12-23T12:26:03.834Z,8.6
2022-12-23T12:31:03.919Z,8.6
2022-12-23T12:36:05.562Z,8.6
2022-12-23T12:41:03.820Z,8.6
2022-12-23T12:46:04.123Z,8.6
2022-12-23T12:51:03.857Z,8.7
2022-12-23T12:56:03.878Z,8.7
2022-12-23T13:01:03.872Z,8.7
2022-12-23T13:06:04.025Z,8.7
2022-12-23T13:11:03.892Z,8.8
2022-12-23T13:16:03.861Z,8.8
2022-12-23T13:21:03.839Z,8.8
2022-12-23T13:26:03.861Z,8.8
2022-12-23T13:31:04.036Z,8.8
2022-12-23T13:36:05.945Z,8.8
2022-12-23T13:41:03.852Z,8.8
2022-12-23T13:46:04.014Z,8.8
2022-12-23T13:51:03.883Z,8.8
2022-12-23T13:56:03.870Z,8.8
2022-12-23T14:01:03.883Z,8.8
2022-12-23T14:06:03.872Z,8.9
2022-12-23T14:11:03.889Z,8.9
2022-12-23T14:16:03.865Z,8.9
2022-12-23T14:21:03.876Z,8.9
2022-12-23T14:26:03.891Z,8.9
2022-12-23T14:31:03.951Z,8.9
2022-12-23T14:36:03.936Z,8.9
2022-12-23T14:41:03.870Z,8.9
2022-12-23T14:46:03.954Z,8.9
2022-12-23T14:51:03.906Z,8.9
2022-12-23T14:56:03.882Z,8.9
2022-12-23T15:01:03.885Z,8.9
2022-12-23T15:06:03.889Z,8.9
2022-12-23T15:11:03.903Z,8.9
2022-12-23T15:16:03.984Z,9
2022-12-23T15:21:03.890Z,9
2022-12-23T15:26:03.883Z,9
2022-12-23T15:31:03.927Z,9
2022-12-23T15:36:03.936Z,8.9
2022-12-23T15:41:03.875Z,8.9
2022-12-23T15:46:03.916Z,8.9
2022-12-23T15:51:03.886Z,8.9
2022-12-23T15:56:03.896Z,8.9
2022-12-23T16:01:03.886Z,8.9
2022-12-23T16:06:03.912Z,8.9
2022-12-23T16:11:03.897Z,8.9
2022-12-23T16:16:03.993Z,8.9
2022-12-23T16:21:03.879Z,8.9
2022-12-23T16:26:03.924Z,8.9
2022-12-23T16:31:03.961Z,8.9
2022-12-23T16:36:03.937Z,8.9
2022-12-23T16:41:03.898Z,8.9
2022-12-23T16:46:03.969Z,8.9
2022-12-23T16:51:03.921Z,8.9
2022-12-23T16:56:03.897Z,8.9
2022-12-23T17:01:03.972Z,8.9
2022-12-23T17:06:03.940Z,8.9
2022-12-23T17:11:03.945Z,8.9
2022-12-23T17:16:03.942Z,8.9
2022-12-23T17:21:03.901Z,8.9
2022-12-23T17:26:03.912Z,8.9
2022-12-23T17:31:07.152Z,8.9
2022-12-23T17:36:03.976Z,8.9
2022-12-23T17:41:03.917Z,8.9
2022-12-23T17:46:04.054Z,8.9
2022-12-23T17:51:03.961Z,8.8
2022-12-23T17:56:03.932Z,8.9
2022-12-23T18:01:03.986Z,8.8
2022-12-23T18:06:04.027Z,8.8
2022-12-23T18:11:03.943Z,8.8
2022-12-23T18:16:03.932Z,8.8
2022-12-23T18:21:03.924Z,8.8
2022-12-23T18:26:03.943Z,8.8
2022-12-23T18:31:04.031Z,8.8
2022-12-23T18:36:03.973Z,8.8
2022-12-23T18:41:03.949Z,8.8
2022-12-23T18:46:04.031Z,8.8
2022-12-23T18:51:03.997Z,8.8
2022-12-23T18:56:03.946Z,8.8
2022-12-23T19:01:04.029Z,8.8
2022-12-23T19:06:03.974Z,8.8
2022-12-23T19:11:03.988Z,8.8
2022-12-23T19:16:04.024Z,8.8
2022-12-23T19:21:04.001Z,8.8
2022-12-23T19:26:03.970Z,8.8
2022-12-23T19:31:04.045Z,8.8
2022-12-23T19:36:04.034Z,8.8
2022-12-23T19:41:03.971Z,8.8
2022-12-23T19:46:04.002Z,8.8
2022-12-23T19:51:03.993Z,8.8
2022-12-23T19:56:04.011Z,8.8
2022-12-23T20:01:03.970Z,8.8
2022-12-23T20:06:03.987Z,8.8
2022-12-23T20:11:03.998Z,8.8
2022-12-23T20:16:04.065Z,8.8
2022-12-23T20:21:03.983Z,8.8
2022-12-23T20:26:03.990Z,8.8
2022-12-23T20:31:04.167Z,8.8
2022-12-23T20:36:04.041Z,8.8
2022-12-23T20:41:04.017Z,8.8
2022-12-23T20:46:04.023Z,8.8
2022-12-23T20:51:04.015Z,8.8
2022-12-23T20:56:03.998Z,8.8
2022-12-23T21:01:03.986Z,8.8
2022-12-23T21:06:04.060Z,8.7
2022-12-23T21:11:04.025Z,8.7
2022-12-23T21:16:04.090Z,8.7
2022-12-23T21:21:04.018Z,8.7
2022-12-23T21:26:04.019Z,8.7
2022-12-23T21:31:04.100Z,8.7
2022-12-23T21:36:04.078Z,8.6
2022-12-23T21:41:04.018Z,8.6
2022-12-23T21:46:04.051Z,8.6
2022-12-23T21:51:04.101Z,8.6
2022-12-23T21:56:04.037Z,8.6
2022-12-23T22:01:04.080Z,8.6
2022-12-23T22:06:08.419Z,8.6
2022-12-23T22:11:04.030Z,8.6
2022-12-23T22:16:04.109Z,8.6
2022-12-23T22:21:04.018Z,8.6
2022-12-23T22:26:04.047Z,8.6
2022-12-23T22:31:04.125Z,8.5
2022-12-23T22:36:04.044Z,8.5
2022-12-23T22:41:04.014Z,8.5
2022-12-23T22:46:04.162Z,8.5
2022-12-23T22:51:04.094Z,8.5
2022-12-23T22:56:04.052Z,8.5
2022-12-23T23:01:04.037Z,8.5
2022-12-23T23:06:04.093Z,8.5
2022-12-23T23:11:04.083Z,8.5
2022-12-23T23:16:04.076Z,8.5
2022-12-23T23:21:04.031Z,8.5
2022-12-23T23:26:04.079Z,8.5
2022-12-23T23:31:39.562Z,8.5
2022-12-23T23:36:04.132Z,8.5
2022-12-23T23:41:04.098Z,8.5
2022-12-23T23:46:04.113Z,8.5
2022-12-23T23:51:04.089Z,8.5
2022-12-23T23:56:04.068Z,8.3
